sensor_id;sensor_type;location;lat;lon;timestamp;P1;durP1;ratioP1;P2;durP2;ratioP2
28960;SDS011;16068;42.896;20.868;2024-02-26T00:00:20;38.90;;;18.35;;
28960;SDS011;16068;42.896;20.868;2024-02-26T00:03:06;43.33;;;20.95;;
28960;SDS011;16068;42.896;20.868;2024-02-26T00:05:53;46.97;;;22.15;;
28960;SDS011;16068;42.896;20.868;2024-02-26T00:08:40;47.58;;;21.50;;
28960;SDS011;16068;42.896;20.868;2024-02-26T00:11:26;41.28;;;20.55;;
28960;SDS011;16068;42.896;20.868;2024-02-26T00:14:12;32.33;;;15.35;;
28960;SDS011;16068;42.896;20.868;2024-02-26T00:16:58;26.77;;;14.35;;
28960;SDS011;16068;42.896;20.868;2024-02-26T00:19:44;24.67;;;13.27;;
28960;SDS011;16068;42.896;20.868;2024-02-26T00:22:31;29.13;;;14.23;;
28960;SDS011;16068;42.896;20.868;2024-02-26T00:25:17;33.58;;;16.05;;
28960;SDS011;16068;42.896;20.868;2024-02-26T00:28:04;36.63;;;17.13;;
28960;SDS011;16068;42.896;20.868;2024-02-26T00:30:50;33.15;;;18.10;;
28960;SDS011;16068;42.896;20.868;2024-02-26T00:33:41;44.83;;;19.17;;
28960;SDS011;16068;42.896;20.868;2024-02-26T00:36:27;38.88;;;19.13;;
28960;SDS011;16068;42.896;20.868;2024-02-26T00:39:13;51.85;;;20.25;;
28960;SDS011;16068;42.896;20.868;2024-02-26T00:41:59;46.13;;;20.80;;
28960;SDS011;16068;42.896;20.868;2024-02-26T00:44:45;36.70;;;18.42;;
28960;SDS011;16068;42.896;20.868;2024-02-26T00:47:32;44.28;;;21.92;;
28960;SDS011;16068;42.896;20.868;2024-02-26T00:50:17;41.72;;;21.10;;
28960;SDS011;16068;42.896;20.868;2024-02-26T00:53:04;41.35;;;20.08;;
28960;SDS011;16068;42.896;20.868;2024-02-26T00:55:50;42.58;;;22.30;;
28960;SDS011;16068;42.896;20.868;2024-02-26T00:58:39;42.50;;;20.83;;
28960;SDS011;16068;42.896;20.868;2024-02-26T01:01:26;42.42;;;19.55;;
28960;SDS011;16068;42.896;20.868;2024-02-26T01:04:12;44.92;;;20.48;;
28960;SDS011;16068;42.896;20.868;2024-02-26T01:06:59;37.30;;;18.35;;
28960;SDS011;16068;42.896;20.868;2024-02-26T01:09:45;39.25;;;17.33;;
28960;SDS011;16068;42.896;20.868;2024-02-26T01:12:32;35.50;;;16.77;;
28960;SDS011;16068;42.896;20.868;2024-02-26T01:15:19;32.00;;;16.38;;
28960;SDS011;16068;42.896;20.868;2024-02-26T01:18:09;34.78;;;16.77;;
28960;SDS011;16068;42.896;20.868;2024-02-26T01:20:55;29.02;;;15.75;;
28960;SDS011;16068;42.896;20.868;2024-02-26T01:23:41;34.83;;;15.48;;
28960;SDS011;16068;42.896;20.868;2024-02-26T01:26:28;28.25;;;14.40;;
28960;SDS011;16068;42.896;20.868;2024-02-26T01:29:14;33.65;;;14.93;;
28960;SDS011;16068;42.896;20.868;2024-02-26T01:32:00;30.95;;;15.48;;
28960;SDS011;16068;42.896;20.868;2024-02-26T01:34:46;28.90;;;15.98;;
28960;SDS011;16068;42.896;20.868;2024-02-26T01:37:33;32.80;;;15.63;;
28960;SDS011;16068;42.896;20.868;2024-02-26T01:40:18;30.27;;;15.82;;
28960;SDS011;16068;42.896;20.868;2024-02-26T01:43:05;33.08;;;15.77;;
28960;SDS011;16068;42.896;20.868;2024-02-26T01:45:51;25.05;;;13.55;;
28960;SDS011;16068;42.896;20.868;2024-02-26T01:48:38;26.23;;;13.57;;
28960;SDS011;16068;42.896;20.868;2024-02-26T01:51:24;31.55;;;15.25;;
28960;SDS011;16068;42.896;20.868;2024-02-26T01:54:10;26.98;;;14.13;;
28960;SDS011;16068;42.896;20.868;2024-02-26T01:56:56;30.60;;;13.85;;
28960;SDS011;16068;42.896;20.868;2024-02-26T01:59:43;28.63;;;12.65;;
28960;SDS011;16068;42.896;20.868;2024-02-26T02:02:29;34.63;;;17.48;;
28960;SDS011;16068;42.896;20.868;2024-02-26T02:05:15;33.83;;;14.48;;
28960;SDS011;16068;42.896;20.868;2024-02-26T02:08:04;31.92;;;13.45;;
28960;SDS011;16068;42.896;20.868;2024-02-26T02:10:51;32.33;;;14.75;;
28960;SDS011;16068;42.896;20.868;2024-02-26T02:13:37;26.00;;;12.93;;
28960;SDS011;16068;42.896;20.868;2024-02-26T02:16:23;35.88;;;13.05;;
28960;SDS011;16068;42.896;20.868;2024-02-26T02:19:09;25.48;;;12.10;;
28960;SDS011;16068;42.896;20.868;2024-02-26T02:21:55;25.85;;;11.63;;
28960;SDS011;16068;42.896;20.868;2024-02-26T02:24:41;28.52;;;12.93;;
28960;SDS011;16068;42.896;20.868;2024-02-26T02:27:27;26.70;;;12.60;;
28960;SDS011;16068;42.896;20.868;2024-02-26T02:30:14;20.92;;;11.00;;
28960;SDS011;16068;42.896;20.868;2024-02-26T02:33:02;28.02;;;10.95;;
28960;SDS011;16068;42.896;20.868;2024-02-26T02:35:48;27.92;;;12.75;;
28960;SDS011;16068;42.896;20.868;2024-02-26T02:38:48;26.20;;;12.50;;
28960;SDS011;16068;42.896;20.868;2024-02-26T02:41:37;30.95;;;12.45;;
28960;SDS011;16068;42.896;20.868;2024-02-26T02:44:23;31.70;;;11.82;;
28960;SDS011;16068;42.896;20.868;2024-02-26T02:47:10;23.85;;;11.65;;
28960;SDS011;16068;42.896;20.868;2024-02-26T02:49:56;19.95;;;10.35;;
28960;SDS011;16068;42.896;20.868;2024-02-26T02:52:42;24.50;;;10.10;;
28960;SDS011;16068;42.896;20.868;2024-02-26T02:55:28;32.85;;;10.82;;
28960;SDS011;16068;42.896;20.868;2024-02-26T02:58:14;24.02;;;10.57;;
28960;SDS011;16068;42.896;20.868;2024-02-26T03:01:00;24.70;;;11.48;;
28960;SDS011;16068;42.896;20.868;2024-02-26T03:03:47;20.30;;;8.75;;
28960;SDS011;16068;42.896;20.868;2024-02-26T03:06:33;19.45;;;8.88;;
28960;SDS011;16068;42.896;20.868;2024-02-26T03:09:19;15.77;;;8.95;;
28960;SDS011;16068;42.896;20.868;2024-02-26T03:12:05;20.02;;;9.43;;
28960;SDS011;16068;42.896;20.868;2024-02-26T03:14:51;18.17;;;8.75;;
28960;SDS011;16068;42.896;20.868;2024-02-26T03:17:39;20.73;;;8.75;;
28960;SDS011;16068;42.896;20.868;2024-02-26T03:20:26;15.65;;;8.43;;
28960;SDS011;16068;42.896;20.868;2024-02-26T03:23:12;20.23;;;8.88;;
28960;SDS011;16068;42.896;20.868;2024-02-26T03:26:00;21.00;;;10.02;;
28960;SDS011;16068;42.896;20.868;2024-02-26T03:28:47;19.33;;;10.35;;
28960;SDS011;16068;42.896;20.868;2024-02-26T03:31:33;34.78;;;15.63;;
28960;SDS011;16068;42.896;20.868;2024-02-26T03:34:19;32.63;;;16.92;;
28960;SDS011;16068;42.896;20.868;2024-02-26T03:37:05;34.65;;;15.35;;
28960;SDS011;16068;42.896;20.868;2024-02-26T03:39:52;29.98;;;16.17;;
28960;SDS011;16068;42.896;20.868;2024-02-26T03:42:38;24.95;;;12.73;;
28960;SDS011;16068;42.896;20.868;2024-02-26T03:45:25;25.70;;;12.70;;
28960;SDS011;16068;42.896;20.868;2024-02-26T03:48:13;22.88;;;11.63;;
28960;SDS011;16068;42.896;20.868;2024-02-26T03:50:59;24.38;;;11.15;;
28960;SDS011;16068;42.896;20.868;2024-02-26T03:53:45;24.50;;;11.95;;
28960;SDS011;16068;42.896;20.868;2024-02-26T03:56:31;20.20;;;10.30;;
28960;SDS011;16068;42.896;20.868;2024-02-26T03:59:17;17.42;;;10.23;;
28960;SDS011;16068;42.896;20.868;2024-02-26T04:02:03;29.23;;;11.00;;
28960;SDS011;16068;42.896;20.868;2024-02-26T04:04:49;22.05;;;11.57;;
28960;SDS011;16068;42.896;20.868;2024-02-26T04:07:35;18.42;;;10.48;;
28960;SDS011;16068;42.896;20.868;2024-02-26T04:10:22;19.27;;;10.43;;
28960;SDS011;16068;42.896;20.868;2024-02-26T04:13:08;24.65;;;10.88;;
28960;SDS011;16068;42.896;20.868;2024-02-26T04:15:54;21.05;;;11.02;;
28960;SDS011;16068;42.896;20.868;2024-02-26T04:18:41;19.73;;;11.32;;
28960;SDS011;16068;42.896;20.868;2024-02-26T04:21:27;20.08;;;11.38;;
28960;SDS011;16068;42.896;20.868;2024-02-26T04:24:13;20.63;;;9.30;;
28960;SDS011;16068;42.896;20.868;2024-02-26T04:26:59;24.10;;;10.95;;
28960;SDS011;16068;42.896;20.868;2024-02-26T04:29:45;23.42;;;9.90;;
28960;SDS011;16068;42.896;20.868;2024-02-26T04:32:32;21.98;;;10.07;;
28960;SDS011;16068;42.896;20.868;2024-02-26T04:35:18;15.05;;;8.93;;
28960;SDS011;16068;42.896;20.868;2024-02-26T04:38:04;15.52;;;9.00;;
28960;SDS011;16068;42.896;20.868;2024-02-26T04:40:50;15.43;;;8.35;;
28960;SDS011;16068;42.896;20.868;2024-02-26T04:43:36;18.30;;;7.97;;
28960;SDS011;16068;42.896;20.868;2024-02-26T04:46:27;18.73;;;7.72;;
28960;SDS011;16068;42.896;20.868;2024-02-26T04:49:14;17.55;;;8.23;;
28960;SDS011;16068;42.896;20.868;2024-02-26T04:52:00;19.70;;;8.50;;
28960;SDS011;16068;42.896;20.868;2024-02-26T04:54:46;17.83;;;7.80;;
28960;SDS011;16068;42.896;20.868;2024-02-26T04:57:32;19.30;;;9.98;;
28960;SDS011;16068;42.896;20.868;2024-02-26T05:00:18;19.02;;;8.50;;
28960;SDS011;16068;42.896;20.868;2024-02-26T05:03:04;26.35;;;9.40;;
28960;SDS011;16068;42.896;20.868;2024-02-26T05:05:51;18.58;;;8.65;;
28960;SDS011;16068;42.896;20.868;2024-02-26T05:08:37;20.33;;;8.90;;
28960;SDS011;16068;42.896;20.868;2024-02-26T05:11:24;20.60;;;8.88;;
28960;SDS011;16068;42.896;20.868;2024-02-26T05:14:10;16.83;;;9.02;;
28960;SDS011;16068;42.896;20.868;2024-02-26T05:16:56;26.55;;;9.55;;
28960;SDS011;16068;42.896;20.868;2024-02-26T05:19:42;47.72;;;13.43;;
28960;SDS011;16068;42.896;20.868;2024-02-26T05:22:28;24.45;;;11.32;;
28960;SDS011;16068;42.896;20.868;2024-02-26T05:25:15;20.08;;;9.85;;
28960;SDS011;16068;42.896;20.868;2024-02-26T05:28:01;23.67;;;9.98;;
28960;SDS011;16068;42.896;20.868;2024-02-26T05:30:50;22.25;;;10.40;;
28960;SDS011;16068;42.896;20.868;2024-02-26T05:33:36;24.50;;;11.93;;
28960;SDS011;16068;42.896;20.868;2024-02-26T05:36:22;40.83;;;11.75;;
28960;SDS011;16068;42.896;20.868;2024-02-26T05:39:09;31.13;;;11.95;;
28960;SDS011;16068;42.896;20.868;2024-02-26T05:44:51;20.25;;;8.75;;
28960;SDS011;16068;42.896;20.868;2024-02-26T05:47:38;27.23;;;9.52;;
28960;SDS011;16068;42.896;20.868;2024-02-26T05:50:28;26.02;;;9.77;;
28960;SDS011;16068;42.896;20.868;2024-02-26T05:53:14;31.63;;;11.10;;
28960;SDS011;16068;42.896;20.868;2024-02-26T05:56:00;24.58;;;11.20;;
28960;SDS011;16068;42.896;20.868;2024-02-26T05:58:47;20.98;;;10.55;;
28960;SDS011;16068;42.896;20.868;2024-02-26T06:01:34;29.05;;;12.75;;
28960;SDS011;16068;42.896;20.868;2024-02-26T06:04:20;34.95;;;13.70;;
28960;SDS011;16068;42.896;20.868;2024-02-26T06:07:07;38.42;;;14.70;;
28960;SDS011;16068;42.896;20.868;2024-02-26T06:09:53;77.57;;;20.85;;
28960;SDS011;16068;42.896;20.868;2024-02-26T06:12:39;52.35;;;19.90;;
28960;SDS011;16068;42.896;20.868;2024-02-26T06:15:25;37.58;;;16.33;;
28960;SDS011;16068;42.896;20.868;2024-02-26T06:18:11;49.90;;;14.43;;
28960;SDS011;16068;42.896;20.868;2024-02-26T06:20:57;25.77;;;10.68;;
28960;SDS011;16068;42.896;20.868;2024-02-26T06:23:44;21.13;;;9.85;;
28960;SDS011;16068;42.896;20.868;2024-02-26T06:26:30;30.63;;;10.98;;
28960;SDS011;16068;42.896;20.868;2024-02-26T06:29:16;25.60;;;13.55;;
28960;SDS011;16068;42.896;20.868;2024-02-26T06:32:02;33.22;;;13.23;;
28960;SDS011;16068;42.896;20.868;2024-02-26T06:34:49;30.60;;;11.15;;
28960;SDS011;16068;42.896;20.868;2024-02-26T06:37:34;25.58;;;11.48;;
28960;SDS011;16068;42.896;20.868;2024-02-26T06:40:22;52.17;;;13.90;;
28960;SDS011;16068;42.896;20.868;2024-02-26T06:43:07;35.35;;;14.00;;
28960;SDS011;16068;42.896;20.868;2024-02-26T06:45:53;28.88;;;11.50;;
28960;SDS011;16068;42.896;20.868;2024-02-26T06:48:40;43.38;;;14.18;;
28960;SDS011;16068;42.896;20.868;2024-02-26T06:51:26;28.23;;;11.52;;
28960;SDS011;16068;42.896;20.868;2024-02-26T06:54:12;33.38;;;11.00;;
28960;SDS011;16068;42.896;20.868;2024-02-26T06:56:58;34.55;;;10.93;;
28960;SDS011;16068;42.896;20.868;2024-02-26T06:59:44;36.22;;;11.13;;
28960;SDS011;16068;42.896;20.868;2024-02-26T07:02:32;39.95;;;11.70;;
28960;SDS011;16068;42.896;20.868;2024-02-26T07:05:21;28.63;;;11.35;;
28960;SDS011;16068;42.896;20.868;2024-02-26T07:08:07;28.27;;;11.48;;
28960;SDS011;16068;42.896;20.868;2024-02-26T07:10:53;21.70;;;10.43;;
28960;SDS011;16068;42.896;20.868;2024-02-26T07:13:39;29.73;;;11.43;;
28960;SDS011;16068;42.896;20.868;2024-02-26T07:16:25;24.25;;;11.48;;
28960;SDS011;16068;42.896;20.868;2024-02-26T07:19:12;26.63;;;11.10;;
28960;SDS011;16068;42.896;20.868;2024-02-26T07:21:58;38.65;;;12.27;;
28960;SDS011;16068;42.896;20.868;2024-02-26T07:24:44;20.27;;;10.70;;
28960;SDS011;16068;42.896;20.868;2024-02-26T07:27:31;26.17;;;11.60;;
28960;SDS011;16068;42.896;20.868;2024-02-26T07:30:17;29.35;;;11.93;;
28960;SDS011;16068;42.896;20.868;2024-02-26T07:33:03;23.85;;;11.15;;
28960;SDS011;16068;42.896;20.868;2024-02-26T07:35:49;29.10;;;12.95;;
28960;SDS011;16068;42.896;20.868;2024-02-26T07:38:37;53.45;;;15.45;;
28960;SDS011;16068;42.896;20.868;2024-02-26T07:41:28;35.83;;;14.50;;
28960;SDS011;16068;42.896;20.868;2024-02-26T07:44:14;31.95;;;15.25;;
28960;SDS011;16068;42.896;20.868;2024-02-26T07:47:00;44.05;;;16.40;;
28960;SDS011;16068;42.896;20.868;2024-02-26T07:49:46;37.85;;;15.77;;
28960;SDS011;16068;42.896;20.868;2024-02-26T07:52:33;34.38;;;14.43;;
28960;SDS011;16068;42.896;20.868;2024-02-26T07:55:19;31.38;;;15.18;;
28960;SDS011;16068;42.896;20.868;2024-02-26T07:58:06;40.90;;;15.13;;
28960;SDS011;16068;42.896;20.868;2024-02-26T08:00:54;35.60;;;14.90;;
28960;SDS011;16068;42.896;20.868;2024-02-26T08:03:40;35.35;;;15.60;;
28960;SDS011;16068;42.896;20.868;2024-02-26T08:06:26;30.02;;;16.02;;
28960;SDS011;16068;42.896;20.868;2024-02-26T08:09:13;30.40;;;15.10;;
28960;SDS011;16068;42.896;20.868;2024-02-26T08:11:59;40.88;;;16.63;;
28960;SDS011;16068;42.896;20.868;2024-02-26T08:14:45;37.50;;;16.30;;
28960;SDS011;16068;42.896;20.868;2024-02-26T08:17:31;57.58;;;18.17;;
28960;SDS011;16068;42.896;20.868;2024-02-26T08:20:18;61.20;;;29.90;;
28960;SDS011;16068;42.896;20.868;2024-02-26T08:23:05;71.28;;;30.67;;
28960;SDS011;16068;42.896;20.868;2024-02-26T08:25:51;91.70;;;33.85;;
28960;SDS011;16068;42.896;20.868;2024-02-26T08:28:37;84.00;;;33.72;;
28960;SDS011;16068;42.896;20.868;2024-02-26T08:31:23;82.47;;;35.22;;
28960;SDS011;16068;42.896;20.868;2024-02-26T08:34:09;65.68;;;29.55;;
28960;SDS011;16068;42.896;20.868;2024-02-26T08:36:56;26.85;;;13.52;;
28960;SDS011;16068;42.896;20.868;2024-02-26T08:39:42;23.77;;;10.10;;
28960;SDS011;16068;42.896;20.868;2024-02-26T08:42:29;15.27;;;7.28;;
28960;SDS011;16068;42.896;20.868;2024-02-26T08:45:15;30.50;;;10.40;;
28960;SDS011;16068;42.896;20.868;2024-02-26T08:48:02;19.52;;;7.28;;
28960;SDS011;16068;42.896;20.868;2024-02-26T08:50:48;20.48;;;8.43;;
28960;SDS011;16068;42.896;20.868;2024-02-26T08:53:34;26.90;;;8.93;;
28960;SDS011;16068;42.896;20.868;2024-02-26T08:56:27;31.60;;;11.27;;
28960;SDS011;16068;42.896;20.868;2024-02-26T08:59:13;30.42;;;8.93;;
28960;SDS011;16068;42.896;20.868;2024-02-26T09:02:01;33.80;;;10.45;;
28960;SDS011;16068;42.896;20.868;2024-02-26T09:04:48;35.58;;;9.23;;
28960;SDS011;16068;42.896;20.868;2024-02-26T09:07:34;36.67;;;8.75;;
28960;SDS011;16068;42.896;20.868;2024-02-26T09:10:20;30.35;;;10.35;;
28960;SDS011;16068;42.896;20.868;2024-02-26T09:13:06;74.90;;;19.00;;
28960;SDS011;16068;42.896;20.868;2024-02-26T09:15:53;80.10;;;18.13;;
28960;SDS011;16068;42.896;20.868;2024-02-26T09:18:40;52.83;;;12.13;;
28960;SDS011;16068;42.896;20.868;2024-02-26T09:21:26;28.73;;;8.88;;
28960;SDS011;16068;42.896;20.868;2024-02-26T09:24:13;47.28;;;12.57;;
28960;SDS011;16068;42.896;20.868;2024-02-26T09:27:00;71.00;;;14.52;;
28960;SDS011;16068;42.896;20.868;2024-02-26T09:29:47;58.60;;;12.23;;
28960;SDS011;16068;42.896;20.868;2024-02-26T09:32:33;40.72;;;9.30;;
28960;SDS011;16068;42.896;20.868;2024-02-26T09:35:19;37.50;;;9.48;;
28960;SDS011;16068;42.896;20.868;2024-02-26T09:38:05;51.75;;;8.88;;
28960;SDS011;16068;42.896;20.868;2024-02-26T09:40:53;44.15;;;8.30;;
28960;SDS011;16068;42.896;20.868;2024-02-26T09:43:39;47.78;;;9.07;;
28960;SDS011;16068;42.896;20.868;2024-02-26T09:46:27;34.00;;;6.90;;
28960;SDS011;16068;42.896;20.868;2024-02-26T09:49:15;25.83;;;6.50;;
28960;SDS011;16068;42.896;20.868;2024-02-26T09:52:01;35.08;;;6.97;;
28960;SDS011;16068;42.896;20.868;2024-02-26T09:54:49;30.65;;;6.75;;
28960;SDS011;16068;42.896;20.868;2024-02-26T09:57:36;33.03;;;6.20;;
28960;SDS011;16068;42.896;20.868;2024-02-26T10:00:22;37.40;;;7.93;;
28960;SDS011;16068;42.896;20.868;2024-02-26T10:03:09;34.70;;;7.35;;
28960;SDS011;16068;42.896;20.868;2024-02-26T10:06:00;30.27;;;6.47;;
28960;SDS011;16068;42.896;20.868;2024-02-26T10:08:48;31.98;;;6.15;;
28960;SDS011;16068;42.896;20.868;2024-02-26T10:11:35;25.17;;;5.53;;
28960;SDS011;16068;42.896;20.868;2024-02-26T10:14:21;27.42;;;5.65;;
28960;SDS011;16068;42.896;20.868;2024-02-26T10:17:08;26.42;;;5.30;;
28960;SDS011;16068;42.896;20.868;2024-02-26T10:19:54;38.40;;;6.15;;
28960;SDS011;16068;42.896;20.868;2024-02-26T10:22:57;20.48;;;5.10;;
28960;SDS011;16068;42.896;20.868;2024-02-26T10:25:53;24.80;;;5.78;;
28960;SDS011;16068;42.896;20.868;2024-02-26T10:28:44;22.60;;;5.22;;
28960;SDS011;16068;42.896;20.868;2024-02-26T10:31:33;17.40;;;4.63;;
28960;SDS011;16068;42.896;20.868;2024-02-26T10:34:19;21.73;;;4.15;;
28960;SDS011;16068;42.896;20.868;2024-02-26T10:37:07;13.50;;;4.05;;
28960;SDS011;16068;42.896;20.868;2024-02-26T10:39:53;28.63;;;4.60;;
28960;SDS011;16068;42.896;20.868;2024-02-26T10:42:41;24.48;;;4.70;;
28960;SDS011;16068;42.896;20.868;2024-02-26T10:45:28;31.92;;;5.20;;
28960;SDS011;16068;42.896;20.868;2024-02-26T10:48:14;32.72;;;4.43;;
28960;SDS011;16068;42.896;20.868;2024-02-26T10:51:01;21.33;;;4.35;;
28960;SDS011;16068;42.896;20.868;2024-02-26T10:53:47;30.05;;;3.97;;
28960;SDS011;16068;42.896;20.868;2024-02-26T10:56:35;29.75;;;5.03;;
28960;SDS011;16068;42.896;20.868;2024-02-26T10:59:25;23.10;;;4.97;;
28960;SDS011;16068;42.896;20.868;2024-02-26T11:02:12;22.52;;;3.72;;
28960;SDS011;16068;42.896;20.868;2024-02-26T11:04:59;42.00;;;5.53;;
28960;SDS011;16068;42.896;20.868;2024-02-26T11:07:47;20.48;;;3.63;;
28960;SDS011;16068;42.896;20.868;2024-02-26T11:10:34;22.15;;;3.88;;
28960;SDS011;16068;42.896;20.868;2024-02-26T11:13:21;21.30;;;3.75;;
28960;SDS011;16068;42.896;20.868;2024-02-26T11:16:11;15.43;;;3.15;;
28960;SDS011;16068;42.896;20.868;2024-02-26T11:18:57;32.70;;;4.78;;
28960;SDS011;16068;42.896;20.868;2024-02-26T11:21:44;32.40;;;3.95;;
28960;SDS011;16068;42.896;20.868;2024-02-26T11:24:31;16.88;;;4.38;;
28960;SDS011;16068;42.896;20.868;2024-02-26T11:27:18;12.20;;;4.40;;
28960;SDS011;16068;42.896;20.868;2024-02-26T11:30:05;25.73;;;5.70;;
28960;SDS011;16068;42.896;20.868;2024-02-26T11:32:55;18.80;;;4.20;;
28960;SDS011;16068;42.896;20.868;2024-02-26T11:35:42;18.10;;;4.10;;
28960;SDS011;16068;42.896;20.868;2024-02-26T11:38:29;20.08;;;3.70;;
28960;SDS011;16068;42.896;20.868;2024-02-26T11:41:15;24.50;;;3.17;;
28960;SDS011;16068;42.896;20.868;2024-02-26T11:44:02;16.65;;;3.17;;
28960;SDS011;16068;42.896;20.868;2024-02-26T11:46:50;24.95;;;4.22;;
28960;SDS011;16068;42.896;20.868;2024-02-26T11:49:36;16.08;;;2.50;;
28960;SDS011;16068;42.896;20.868;2024-02-26T11:52:22;14.25;;;3.85;;
28960;SDS011;16068;42.896;20.868;2024-02-26T11:55:12;13.15;;;3.47;;
28960;SDS011;16068;42.896;20.868;2024-02-26T11:58:17;25.10;;;4.03;;
28960;SDS011;16068;42.896;20.868;2024-02-26T12:01:04;14.05;;;3.60;;
28960;SDS011;16068;42.896;20.868;2024-02-26T12:03:51;19.73;;;2.92;;
28960;SDS011;16068;42.896;20.868;2024-02-26T12:06:41;11.68;;;2.35;;
28960;SDS011;16068;42.896;20.868;2024-02-26T12:09:35;16.50;;;2.45;;
28960;SDS011;16068;42.896;20.868;2024-02-26T12:12:25;11.15;;;2.75;;
28960;SDS011;16068;42.896;20.868;2024-02-26T12:15:12;15.13;;;3.33;;
28960;SDS011;16068;42.896;20.868;2024-02-26T12:18:01;11.57;;;3.65;;
28960;SDS011;16068;42.896;20.868;2024-02-26T12:20:58;9.38;;;3.53;;
28960;SDS011;16068;42.896;20.868;2024-02-26T12:23:46;19.15;;;7.00;;
28960;SDS011;16068;42.896;20.868;2024-02-26T12:26:33;23.92;;;7.75;;
28960;SDS011;16068;42.896;20.868;2024-02-26T12:29:19;23.50;;;6.97;;
28960;SDS011;16068;42.896;20.868;2024-02-26T12:32:06;17.10;;;4.45;;
28960;SDS011;16068;42.896;20.868;2024-02-26T12:34:53;19.40;;;4.63;;
28960;SDS011;16068;42.896;20.868;2024-02-26T12:37:39;15.55;;;3.50;;
28960;SDS011;16068;42.896;20.868;2024-02-26T12:40:28;14.20;;;3.60;;
28960;SDS011;16068;42.896;20.868;2024-02-26T12:43:15;20.70;;;3.15;;
28960;SDS011;16068;42.896;20.868;2024-02-26T12:46:03;16.42;;;3.75;;
28960;SDS011;16068;42.896;20.868;2024-02-26T12:48:49;25.73;;;4.32;;
28960;SDS011;16068;42.896;20.868;2024-02-26T12:51:36;13.10;;;3.80;;
28960;SDS011;16068;42.896;20.868;2024-02-26T12:54:22;12.13;;;4.32;;
28960;SDS011;16068;42.896;20.868;2024-02-26T12:57:08;14.85;;;4.40;;
28960;SDS011;16068;42.896;20.868;2024-02-26T12:59:55;12.48;;;3.80;;
28960;SDS011;16068;42.896;20.868;2024-02-26T13:02:42;18.17;;;4.15;;
28960;SDS011;16068;42.896;20.868;2024-02-26T13:05:29;11.73;;;3.58;;
28960;SDS011;16068;42.896;20.868;2024-02-26T13:08:19;16.83;;;3.33;;
28960;SDS011;16068;42.896;20.868;2024-02-26T13:11:07;19.02;;;3.22;;
28960;SDS011;16068;42.896;20.868;2024-02-26T13:13:58;13.60;;;3.67;;
28960;SDS011;16068;42.896;20.868;2024-02-26T13:16:45;14.15;;;3.90;;
28960;SDS011;16068;42.896;20.868;2024-02-26T13:19:31;15.30;;;3.25;;
28960;SDS011;16068;42.896;20.868;2024-02-26T13:22:18;18.60;;;4.15;;
28960;SDS011;16068;42.896;20.868;2024-02-26T13:25:07;16.55;;;3.97;;
28960;SDS011;16068;42.896;20.868;2024-02-26T13:28:04;19.05;;;4.32;;
28960;SDS011;16068;42.896;20.868;2024-02-26T13:31:10;14.43;;;3.67;;
28960;SDS011;16068;42.896;20.868;2024-02-26T13:33:56;23.58;;;3.92;;
28960;SDS011;16068;42.896;20.868;2024-02-26T13:36:43;20.02;;;3.78;;
28960;SDS011;16068;42.896;20.868;2024-02-26T13:39:29;12.32;;;3.40;;
28960;SDS011;16068;42.896;20.868;2024-02-26T13:42:16;13.35;;;3.92;;
28960;SDS011;16068;42.896;20.868;2024-02-26T13:45:03;12.18;;;4.10;;
28960;SDS011;16068;42.896;20.868;2024-02-26T13:47:52;17.10;;;4.20;;
28960;SDS011;16068;42.896;20.868;2024-02-26T13:50:40;16.95;;;4.55;;
28960;SDS011;16068;42.896;20.868;2024-02-26T13:53:26;14.13;;;4.15;;
28960;SDS011;16068;42.896;20.868;2024-02-26T13:56:13;24.13;;;4.30;;
28960;SDS011;16068;42.896;20.868;2024-02-26T13:58:59;25.08;;;4.60;;
28960;SDS011;16068;42.896;20.868;2024-02-26T14:01:45;27.60;;;4.95;;
28960;SDS011;16068;42.896;20.868;2024-02-26T14:04:31;27.20;;;5.70;;
28960;SDS011;16068;42.896;20.868;2024-02-26T14:07:17;20.70;;;5.35;;
28960;SDS011;16068;42.896;20.868;2024-02-26T14:10:03;12.52;;;6.07;;
28960;SDS011;16068;42.896;20.868;2024-02-26T14:12:50;20.80;;;5.72;;
28960;SDS011;16068;42.896;20.868;2024-02-26T14:15:36;12.73;;;4.28;;
28960;SDS011;16068;42.896;20.868;2024-02-26T14:18:24;14.73;;;4.97;;
28960;SDS011;16068;42.896;20.868;2024-02-26T14:21:10;20.23;;;4.53;;
28960;SDS011;16068;42.896;20.868;2024-02-26T14:23:57;17.92;;;3.80;;
28960;SDS011;16068;42.896;20.868;2024-02-26T14:26:43;13.60;;;3.95;;
28960;SDS011;16068;42.896;20.868;2024-02-26T14:29:29;17.52;;;4.10;;
28960;SDS011;16068;42.896;20.868;2024-02-26T14:32:15;22.23;;;5.55;;
28960;SDS011;16068;42.896;20.868;2024-02-26T14:35:04;20.27;;;4.70;;
28960;SDS011;16068;42.896;20.868;2024-02-26T14:38:02;15.38;;;5.45;;
28960;SDS011;16068;42.896;20.868;2024-02-26T14:40:48;17.23;;;5.22;;
28960;SDS011;16068;42.896;20.868;2024-02-26T14:43:35;16.60;;;5.18;;
28960;SDS011;16068;42.896;20.868;2024-02-26T14:46:20;18.25;;;4.80;;
28960;SDS011;16068;42.896;20.868;2024-02-26T14:49:07;10.73;;;4.13;;
28960;SDS011;16068;42.896;20.868;2024-02-26T14:51:56;16.92;;;4.80;;
28960;SDS011;16068;42.896;20.868;2024-02-26T14:54:42;20.27;;;5.28;;
28960;SDS011;16068;42.896;20.868;2024-02-26T14:57:28;25.00;;;5.10;;
28960;SDS011;16068;42.896;20.868;2024-02-26T15:00:15;24.35;;;5.10;;
28960;SDS011;16068;42.896;20.868;2024-02-26T15:03:01;21.23;;;5.57;;
28960;SDS011;16068;42.896;20.868;2024-02-26T15:05:47;15.75;;;4.95;;
28960;SDS011;16068;42.896;20.868;2024-02-26T15:08:33;11.82;;;4.88;;
28960;SDS011;16068;42.896;20.868;2024-02-26T15:11:19;20.52;;;5.45;;
28960;SDS011;16068;42.896;20.868;2024-02-26T15:14:07;18.67;;;5.68;;
28960;SDS011;16068;42.896;20.868;2024-02-26T15:16:53;15.07;;;5.57;;
28960;SDS011;16068;42.896;20.868;2024-02-26T15:19:39;13.23;;;5.50;;
28960;SDS011;16068;42.896;20.868;2024-02-26T15:22:26;19.92;;;5.45;;
28960;SDS011;16068;42.896;20.868;2024-02-26T15:25:12;19.08;;;5.85;;
28960;SDS011;16068;42.896;20.868;2024-02-26T15:28:01;20.08;;;5.43;;
28960;SDS011;16068;42.896;20.868;2024-02-26T15:30:52;25.88;;;6.63;;
28960;SDS011;16068;42.896;20.868;2024-02-26T15:33:38;26.85;;;6.10;;
28960;SDS011;16068;42.896;20.868;2024-02-26T15:36:25;25.95;;;6.80;;
28960;SDS011;16068;42.896;20.868;2024-02-26T15:39:13;30.27;;;8.02;;
28960;SDS011;16068;42.896;20.868;2024-02-26T15:41:59;28.60;;;8.25;;
28960;SDS011;16068;42.896;20.868;2024-02-26T15:44:49;31.75;;;10.48;;
28960;SDS011;16068;42.896;20.868;2024-02-26T15:47:35;18.27;;;8.38;;
28960;SDS011;16068;42.896;20.868;2024-02-26T15:50:21;19.77;;;6.32;;
28960;SDS011;16068;42.896;20.868;2024-02-26T15:53:07;23.67;;;6.75;;
28960;SDS011;16068;42.896;20.868;2024-02-26T15:55:53;23.75;;;7.13;;
28960;SDS011;16068;42.896;20.868;2024-02-26T15:58:39;17.23;;;6.22;;
28960;SDS011;16068;42.896;20.868;2024-02-26T16:01:27;22.48;;;6.55;;
28960;SDS011;16068;42.896;20.868;2024-02-26T16:04:16;20.42;;;6.57;;
28960;SDS011;16068;42.896;20.868;2024-02-26T16:07:04;29.60;;;6.45;;
28960;SDS011;16068;42.896;20.868;2024-02-26T16:09:59;28.60;;;6.88;;
28960;SDS011;16068;42.896;20.868;2024-02-26T16:12:55;19.50;;;7.20;;